Time;durP1;ratioP1;P1;durP2;ratioP2;P2;SDS_P1;SDS_P2;PMS_P1;PMS_P2;Temp;Humidity;BMP_temperature;BMP_pressure;BME280_temperature;BME280_humidity;BME280_pressure;Samples;Min_cycle;Max_cycle;Signal;HPM_P1;HPM_P2
2023/04/16 00:00:09;;;;;;;5.13;2.33;;;13.00;90.90;;;;;;5026410;28;20450;-66
2023/04/16 00:02:35;;;;;;;8.27;2.10;;;13.10;90.60;;;;;;5022335;28;20033;-67
2023/04/16 00:05:01;;;;;;;13.98;2.50;;;13.10;90.60;;;;;;5031106;28;20429;-67
2023/04/16 00:07:26;;;;;;;13.07;2.55;;;13.10;90.60;;;;;;5015665;28;20032;-66
2023/04/16 00:09:52;;;;;;;8.38;2.15;;;13.10;90.50;;;;;;5031601;28;20029;-67
2023/04/16 00:12:18;;;;;;;6.28;2.13;;;13.10;90.50;;;;;;5024148;28;20097;-66
2023/04/16 00:14:43;;;;;;;5.63;1.45;;;13.10;90.30;;;;;;5027624;28;20048;-66
2023/04/16 00:17:09;;;;;;;5.03;1.25;;;13.00;90.20;;;;;;5030374;28;20037;-67
2023/04/16 00:19:35;;;;;;;6.85;1.60;;;13.10;90.30;;;;;;5029920;28;20033;-66
2023/04/16 00:22:01;;;;;;;4.47;0.70;;;13.10;90.10;;;;;;5030759;28;20288;-66
2023/04/16 00:24:26;;;;;;;4.68;0.98;;;13.00;90.10;;;;;;5015923;28;20430;-66
2023/04/16 00:26:52;;;;;;;3.40;0.90;;;13.10;90.10;;;;;;5013497;28;20058;-66
2023/04/16 00:29:18;;;;;;;3.90;1.10;;;13.10;90.00;;;;;;5014291;28;20026;-66
2023/04/16 00:31:43;;;;;;;4.50;0.95;;;13.10;90.20;;;;;;5015490;28;20036;-67
2023/04/16 00:34:09;;;;;;;3.88;1.08;;;13.10;90.20;;;;;;5015605;28;20097;-67
2023/04/16 00:36:35;;;;;;;3.45;0.88;;;13.10;90.30;;;;;;5015369;28;20030;-67
2023/04/16 00:39:00;;;;;;;4.53;1.10;;;13.10;90.20;;;;;;5015717;28;20022;-66
2023/04/16 00:41:26;;;;;;;6.18;1.40;;;13.10;90.30;;;;;;5015242;28;20084;-66
2023/04/16 00:43:52;;;;;;;6.78;1.67;;;13.10;90.40;;;;;;5014450;28;20057;-67
2023/04/16 00:46:24;;;;;;;2.58;1.15;;;13.10;90.50;;;;;;4997993;28;20539;-66
2023/04/16 00:48:51;;;;;;;4.78;1.35;;;13.00;90.50;;;;;;5015242;28;20033;-67
2023/04/16 00:51:18;;;;;;;4.05;1.65;;;13.10;90.50;;;;;;4997812;28;20059;-67
2023/04/16 00:53:45;;;;;;;3.63;1.10;;;13.10;90.50;;;;;;5015485;28;20064;-66
2023/04/16 00:56:12;;;;;;;5.05;1.13;;;13.10;90.50;;;;;;5015282;28;20052;-66
2023/04/16 00:58:38;;;;;;;6.82;0.93;;;13.10;90.40;;;;;;5014684;28;20148;-66
2023/04/16 01:01:04;;;;;;;3.65;0.75;;;13.00;90.50;;;;;;5015074;28;20050;-67
2023/04/16 01:03:44;;;;;;;4.00;0.80;;;13.00;90.40;;;;;;5015096;28;20025;-67
2023/04/16 01:06:10;;;;;;;3.63;1.05;;;13.00;90.40;;;;;;5015024;28;20026;-66
2023/04/16 01:08:36;;;;;;;6.25;1.08;;;13.00;90.40;;;;;;5015098;28;20011;-66
2023/04/16 01:11:03;;;;;;;2.85;0.77;;;13.10;90.50;;;;;;5014891;28;20026;-67
2023/04/16 01:13:29;;;;;;;3.20;0.80;;;13.00;90.50;;;;;;5014907;28;20158;-66
2023/04/16 01:15:55;;;;;;;3.75;0.80;;;13.00;90.50;;;;;;5015208;28;20113;-67
2023/04/16 01:18:22;;;;;;;7.38;1.10;;;13.00;90.50;;;;;;5014585;28;20662;-66
2023/04/16 01:20:48;;;;;;;6.10;0.93;;;13.00;90.60;;;;;;5014954;28;20025;-66
2023/04/16 01:23:15;;;;;;;4.20;1.15;;;13.00;90.70;;;;;;5014594;28;20026;-66
2023/04/16 01:25:40;;;;;;;2.78;0.80;;;13.00;90.60;;;;;;5014445;28;20033;-67
2023/04/16 01:28:06;;;;;;;2.55;1.00;;;13.00;90.70;;;;;;4996760;28;20030;-64
2023/04/16 01:30:32;;;;;;;5.93;1.00;;;13.00;90.80;;;;;;4996489;28;20029;-66
2023/04/16 01:32:58;;;;;;;4.88;1.10;;;13.00;90.80;;;;;;5014377;28;20073;-66
2023/04/16 01:35:24;;;;;;;2.92;0.70;;;13.00;90.70;;;;;;5014649;28;20037;-66
2023/04/16 01:37:50;;;;;;;3.47;1.08;;;13.00;90.70;;;;;;5014566;28;20118;-66
2023/04/16 01:40:16;;;;;;;2.78;0.90;;;13.00;90.70;;;;;;5014039;28;20464;-65
2023/04/16 01:42:42;;;;;;;3.67;0.90;;;13.00;90.80;;;;;;5014158;28;20036;-67
2023/04/16 01:45:08;;;;;;;4.53;1.45;;;13.00;90.90;;;;;;5014163;28;20105;-66
2023/04/16 01:47:33;;;;;;;5.28;1.20;;;13.00;90.90;;;;;;5014066;28;20026;-67
2023/04/16 01:50:00;;;;;;;4.45;1.60;;;13.00;91.00;;;;;;5014157;28;20069;-65
2023/04/16 01:52:25;;;;;;;5.28;1.40;;;13.00;91.00;;;;;;5014269;28;20034;-66
2023/04/16 01:54:51;;;;;;;6.00;1.63;;;13.00;91.10;;;;;;5013714;28;20105;-65
2023/04/16 01:57:16;;;;;;;3.95;1.15;;;13.00;91.20;;;;;;5014005;28;20045;-65
2023/04/16 01:59:42;;;;;;;6.07;1.30;;;13.00;91.20;;;;;;5014043;28;20144;-67
2023/04/16 02:02:13;;;;;;;6.68;1.40;;;13.00;91.20;;;;;;5013952;28;20459;-65
2023/04/16 02:04:40;;;;;;;4.07;0.90;;;13.00;91.30;;;;;;5013762;28;20407;-65
2023/04/16 02:07:07;;;;;;;2.92;1.10;;;13.00;91.30;;;;;;5013866;28;20049;-66
2023/04/16 02:09:34;;;;;;;8.70;1.20;;;13.00;91.40;;;;;;5013683;28;20022;-66
2023/04/16 02:12:02;;;;;;;6.30;1.42;;;13.00;91.40;;;;;;5014110;28;20045;-66
2023/04/16 02:14:31;;;;;;;6.93;1.25;;;13.00;91.40;;;;;;5013856;28;20486;-67
2023/04/16 02:16:57;;;;;;;6.65;1.17;;;13.00;91.40;;;;;;5013696;28;20364;-66
2023/04/16 02:19:23;;;;;;;6.18;1.50;;;13.00;91.40;;;;;;5013392;28;20022;-66
2023/04/16 02:21:51;;;;;;;4.53;1.25;;;13.00;91.50;;;;;;5013792;28;20606;-66
2023/04/16 02:24:17;;;;;;;3.63;1.02;;;13.00;91.50;;;;;;5013231;28;20032;-66
2023/04/16 02:26:43;;;;;;;3.85;1.10;;;12.90;91.50;;;;;;5013565;28;20465;-66
2023/04/16 02:29:09;;;;;;;6.07;1.20;;;13.00;91.60;;;;;;5013315;28;20026;-66
2023/04/16 02:31:35;;;;;;;5.30;0.93;;;12.90;91.60;;;;;;5013458;28;20379;-67
2023/04/16 02:34:01;;;;;;;5.43;1.00;;;12.90;91.60;;;;;;5013561;28;20053;-66
2023/04/16 02:36:26;;;;;;;6.22;1.60;;;13.00;91.60;;;;;;5013060;28;20093;-66
2023/04/16 02:38:52;;;;;;;7.05;1.58;;;13.00;91.70;;;;;;5012591;28;20026;-66
2023/04/16 02:41:17;;;;;;;5.13;1.27;;;12.90;91.70;;;;;;5013157;28;20029;-67
2023/04/16 02:43:43;;;;;;;5.13;0.90;;;13.00;91.70;;;;;;5013279;28;20503;-66
2023/04/16 02:46:09;;;;;;;5.00;0.85;;;12.90;91.60;;;;;;5013362;28;20431;-66
2023/04/16 02:48:35;;;;;;;4.70;1.10;;;13.00;91.60;;;;;;5013328;28;20116;-67
2023/04/16 02:51:00;;;;;;;3.45;0.88;;;12.90;91.50;;;;;;5013326;28;20483;-67
2023/04/16 02:53:26;;;;;;;5.72;1.25;;;12.90;91.50;;;;;;5012841;28;20108;-67
2023/04/16 02:55:53;;;;;;;4.20;1.20;;;12.90;91.60;;;;;;5012915;28;20030;-66
2023/04/16 02:58:23;;;;;;;4.60;1.08;;;12.90;91.60;;;;;;5012879;28;20022;-66
2023/04/16 03:00:49;;;;;;;6.97;1.20;;;12.90;91.50;;;;;;5013091;28;20379;-66
2023/04/16 03:03:15;;;;;;;5.20;1.02;;;12.90;91.60;;;;;;5013246;28;20018;-66
2023/04/16 03:05:41;;;;;;;5.38;1.20;;;12.90;91.60;;;;;;5012889;28;20037;-66
2023/04/16 03:08:07;;;;;;;3.50;1.10;;;12.90;91.60;;;;;;4995181;28;20034;-67
2023/04/16 03:10:33;;;;;;;5.68;1.02;;;12.90;91.50;;;;;;5012502;28;20037;-66
2023/04/16 03:12:59;;;;;;;6.15;1.48;;;12.80;91.50;;;;;;5012848;28;20036;-66
2023/04/16 03:15:26;;;;;;;4.68;1.25;;;12.90;91.80;;;;;;5012853;28;20030;-66
2023/04/16 03:17:52;;;;;;;4.68;0.73;;;12.90;91.60;;;;;;4995167;28;20034;-66
2023/04/16 03:20:18;;;;;;;9.93;1.35;;;12.90;91.50;;;;;;5012793;28;20022;-66
2023/04/16 03:22:44;;;;;;;3.67;1.00;;;12.80;91.50;;;;;;5012719;28;20049;-67
2023/04/16 03:25:10;;;;;;;4.70;1.70;;;12.90;91.60;;;;;;5012554;28;20464;-66
2023/04/16 03:27:36;;;;;;;7.35;1.50;;;12.80;91.60;;;;;;5014052;28;20032;-66
2023/04/16 03:30:02;;;;;;;4.72;1.65;;;12.90;91.70;;;;;;5018520;28;20471;-66
2023/04/16 03:32:27;;;;;;;5.50;1.90;;;12.80;91.60;;;;;;5036185;28;20028;-66
2023/04/16 03:34:53;;;;;;;5.85;1.70;;;12.80;91.70;;;;;;5036265;28;20426;-66
2023/04/16 03:37:18;;;;;;;4.25;1.23;;;12.80;91.70;;;;;;5018004;28;20037;-67
2023/04/16 03:39:44;;;;;;;4.50;1.60;;;12.90;91.70;;;;;;5036166;28;20029;-66
2023/04/16 03:42:10;;;;;;;3.95;1.60;;;12.90;91.70;;;;;;5036287;28;20030;-66
2023/04/16 03:44:35;;;;;;;4.50;1.90;;;12.80;91.70;;;;;;5036390;28;20029;-66
2023/04/16 03:47:01;;;;;;;5.72;1.50;;;12.80;92.00;;;;;;5036077;28;20387;-66
2023/04/16 03:49:26;;;;;;;3.72;1.40;;;12.80;91.90;;;;;;5036258;28;20026;-66
2023/04/16 03:51:52;;;;;;;6.47;1.20;;;12.80;91.90;;;;;;5035976;28;20458;-66
2023/04/16 03:54:17;;;;;;;4.57;1.80;;;12.80;91.90;;;;;;5036560;28;20435;-66
2023/04/16 03:56:43;;;;;;;4.18;0.98;;;12.80;92.00;;;;;;5036199;28;20486;-66
2023/04/16 03:59:09;;;;;;;6.10;1.73;;;12.80;92.00;;;;;;5036243;28;20463;-66
2023/04/16 04:01:35;;;;;;;4.25;1.13;;;12.80;92.00;;;;;;5036044;28;20398;-66
2023/04/16 04:04:00;;;;;;;5.18;1.33;;;12.80;92.10;;;;;;5036254;28;20064;-66
2023/04/16 04:06:26;;;;;;;5.40;1.35;;;12.80;92.10;;;;;;5035535;28;20063;-65
2023/04/16 04:08:52;;;;;;;5.63;1.10;;;12.80;92.10;;;;;;5035950;28;20021;-65
2023/04/16 04:11:18;;;;;;;6.35;1.38;;;12.80;92.10;;;;;;5035685;28;20037;-66
2023/04/16 04:13:44;;;;;;;8.57;1.20;;;12.80;92.10;;;;;;5035730;28;20029;-67
2023/04/16 04:16:10;;;;;;;3.08;0.95;;;12.80;92.10;;;;;;5035908;28;20069;-65
2023/04/16 04:18:35;;;;;;;3.15;1.08;;;12.80;92.10;;;;;;5035752;28;20061;-65
2023/04/16 04:21:08;;;;;;;5.82;1.08;;;12.80;92.20;;;;;;5035531;28;20052;-65
2023/04/16 04:23:34;;;;;;;8.93;1.65;;;12.80;92.20;;;;;;5017891;28;20357;-65
2023/04/16 04:26:02;;;;;;;4.20;0.73;;;12.80;92.20;;;;;;5035473;28;20053;-65
2023/04/16 04:28:29;;;;;;;5.32;1.02;;;12.80;92.20;;;;;;5035387;28;20033;-66
2023/04/16 04:30:56;;;;;;;5.00;0.82;;;12.80;92.20;;;;;;5035729;28;20029;-65
2023/04/16 04:33:22;;;;;;;4.75;1.00;;;12.80;92.20;;;;;;5035532;28;20030;-65
2023/04/16 04:35:47;;;;;;;5.55;1.33;;;12.80;92.20;;;;;;5035575;28;20052;-65
2023/04/16 04:38:13;;;;;;;4.78;1.00;;;12.70;92.10;;;;;;5034856;28;20104;-66
2023/04/16 04:40:38;;;;;;;4.28;1.13;;;12.80;92.20;;;;;;5035193;28;20033;-65
2023/04/16 04:43:04;;;;;;;5.07;1.30;;;12.80;92.50;;;;;;5035528;28;20071;-66
2023/04/16 04:45:30;;;;;;;5.22;1.10;;;12.80;92.20;;;;;;5017245;28;20052;-65
2023/04/16 04:47:55;;;;;;;4.45;1.00;;;12.80;92.30;;;;;;5034921;28;20017;-66
2023/04/16 04:50:22;;;;;;;7.53;1.35;;;12.80;92.30;;;;;;5034598;28;20486;-65
2023/04/16 04:52:48;;;;;;;4.97;1.20;;;12.80;92.30;;;;;;5034796;28;20029;-65
2023/04/16 04:55:14;;;;;;;5.50;1.58;;;12.80;92.30;;;;;;5034811;28;20036;-64
2023/04/16 04:57:40;;;;;;;5.90;1.23;;;12.80;92.30;;;;;;5034659;28;20104;-64
2023/04/16 05:00:07;;;;;;;4.40;1.10;;;12.80;92.30;;;;;;5035005;28;20164;-65
2023/04/16 05:02:32;;;;;;;6.45;1.10;;;12.80;92.20;;;;;;5035194;28;20017;-65
2023/04/16 05:04:58;;;;;;;4.20;1.05;;;12.80;92.30;;;;;;5016958;28;20036;-65
2023/04/16 05:07:24;;;;;;;7.10;1.00;;;12.70;92.20;;;;;;5034690;28;20021;-66
2023/04/16 05:09:49;;;;;;;3.13;0.98;;;12.70;92.20;;;;;;5034541;28;20148;-65
2023/04/16 05:12:15;;;;;;;6.20;1.08;;;12.80;92.20;;;;;;5035018;28;20017;-65
2023/04/16 05:14:41;;;;;;;5.35;1.02;;;12.70;92.30;;;;;;5034450;28;20056;-66
2023/04/16 05:17:06;;;;;;;4.80;1.10;;;12.70;92.30;;;;;;5034462;28;20044;-66
2023/04/16 05:19:32;;;;;;;6.43;0.90;;;12.70;92.30;;;;;;5034244;28;20060;-65
2023/04/16 05:21:58;;;;;;;3.03;0.75;;;12.70;92.40;;;;;;5034484;28;20025;-65
2023/04/16 05:24:24;;;;;;;5.55;1.23;;;12.70;92.50;;;;;;5034612;28;20021;-65
2023/04/16 05:26:50;;;;;;;6.15;1.40;;;12.80;92.50;;;;;;5034441;28;20031;-66
2023/04/16 05:29:15;;;;;;;5.93;1.63;;;12.70;92.50;;;;;;5032622;28;20018;-66
2023/04/16 05:31:41;;;;;;;5.57;1.38;;;12.70;92.50;;;;;;5034291;28;20018;-66
2023/04/16 05:34:07;;;;;;;3.88;1.13;;;12.70;92.60;;;;;;5033893;28;20029;-65
2023/04/16 05:36:32;;;;;;;3.80;0.93;;;12.70;92.50;;;;;;5034163;28;20065;-66
2023/04/16 05:38:58;;;;;;;3.72;1.08;;;12.70;92.50;;;;;;5034119;28;20021;-66
2023/04/16 05:41:23;;;;;;;6.85;1.85;;;12.70;92.30;;;;;;5034175;28;20537;-65
2023/04/16 05:43:49;;;;;;;3.67;1.60;;;12.70;92.40;;;;;;5033699;28;20049;-65
2023/04/16 05:46:15;;;;;;;5.15;1.25;;;12.70;92.30;;;;;;5034157;28;20021;-66
2023/04/16 05:48:40;;;;;;;7.45;1.77;;;12.70;92.30;;;;;;5033621;28;20136;-65
2023/04/16 05:51:06;;;;;;;5.50;1.60;;;12.70;92.30;;;;;;5015419;28;20017;-65
2023/04/16 05:53:31;;;;;;;4.47;1.92;;;12.70;92.30;;;;;;5033741;28;20479;-66
2023/04/16 05:55:57;;;;;;;2.92;1.48;;;12.70;92.30;;;;;;5033975;28;20033;-66
2023/04/16 05:58:22;;;;;;;4.05;1.60;;;12.70;92.30;;;;;;5033950;28;20029;-65
2023/04/16 06:00:48;;;;;;;4.03;1.58;;;12.70;92.30;;;;;;5033704;28;20037;-65
2023/04/16 06:03:13;;;;;;;5.07;1.70;;;12.70;92.40;;;;;;5032776;28;20056;-66
2023/04/16 06:05:39;;;;;;;3.97;1.77;;;12.70;92.40;;;;;;5031273;28;20052;-66
2023/04/16 06:08:04;;;;;;;7.13;2.00;;;12.70;92.40;;;;;;5030985;28;20024;-66
2023/04/16 06:10:30;;;;;;;4.65;1.85;;;12.70;92.50;;;;;;5031456;28;20064;-66
2023/04/16 06:12:56;;;;;;;6.63;1.90;;;12.70;92.50;;;;;;5031770;28;20025;-66
2023/04/16 06:15:21;;;;;;;4.90;2.20;;;12.70;92.60;;;;;;5033317;28;20056;-65
2023/04/16 06:17:48;;;;;;;6.45;1.58;;;12.70;92.60;;;;;;5032252;28;20060;-66
2023/04/16 06:20:13;;;;;;;5.43;1.65;;;12.70;92.60;;;;;;5033269;28;20083;-65
2023/04/16 06:22:39;;;;;;;4.75;1.98;;;12.60;92.70;;;;;;5033402;28;20359;-66
2023/04/16 06:25:05;;;;;;;4.60;1.90;;;12.70;92.70;;;;;;5033340;28;20155;-65
2023/04/16 06:27:30;;;;;;;5.80;2.33;;;12.70;92.80;;;;;;5033401;28;20026;-66
2023/04/16 06:29:57;;;;;;;6.15;2.08;;;12.70;92.80;;;;;;5033193;28;20044;-66
2023/04/16 06:32:22;;;;;;;4.60;1.92;;;12.70;92.90;;;;;;5032891;28;20045;-65
2023/04/16 06:34:48;;;;;;;8.90;2.38;;;12.70;92.90;;;;;;5033160;28;20470;-65
2023/04/16 06:37:15;;;;;;;9.10;2.90;;;12.70;93.00;;;;;;5032839;28;20457;-65
2023/04/16 06:39:40;;;;;;;8.18;3.08;;;12.70;93.10;;;;;;5033138;28;20021;-64
2023/04/16 06:42:06;;;;;;;6.82;2.65;;;12.70;93.10;;;;;;5032525;28;20080;-65
2023/04/16 06:44:32;;;;;;;7.47;2.60;;;12.70;93.30;;;;;;5032749;28;20467;-64
2023/04/16 06:46:57;;;;;;;6.93;2.80;;;12.70;93.30;;;;;;5032590;28;20035;-64
2023/04/16 06:49:23;;;;;;;7.65;2.72;;;12.70;93.60;;;;;;5032980;28;20063;-64
2023/04/16 06:51:49;;;;;;;9.88;3.25;;;12.70;93.30;;;;;;5032817;28;20101;-64
2023/04/16 06:54:15;;;;;;;6.38;2.63;;;12.70;93.40;;;;;;5033055;28;20052;-64
2023/04/16 06:56:41;;;;;;;6.43;2.90;;;12.70;93.50;;;;;;5032842;28;20037;-65
2023/04/16 06:59:07;;;;;;;11.27;3.22;;;12.70;93.60;;;;;;5032632;28;20048;-65
2023/04/16 07:01:32;;;;;;;10.63;3.53;;;12.70;93.60;;;;;;5032356;28;20083;-65
2023/04/16 07:03:58;;;;;;;7.38;2.72;;;12.70;93.60;;;;;;5032963;28;20079;-65
2023/04/16 07:06:24;;;;;;;7.97;3.30;;;12.70;93.60;;;;;;5032441;28;20056;-63
2023/04/16 07:08:49;;;;;;;9.90;3.60;;;12.70;93.60;;;;;;5032636;28;20467;-65
2023/04/16 07:11:16;;;;;;;8.52;3.78;;;12.70;93.60;;;;;;5032538;28;20026;-66
2023/04/16 07:13:41;;;;;;;10.45;4.25;;;12.70;93.70;;;;;;5032280;28;20072;-66
2023/04/16 07:16:07;;;;;;;7.25;3.88;;;12.60;93.70;;;;;;5032301;28;20118;-65
2023/04/16 07:18:32;;;;;;;7.28;3.50;;;12.70;93.70;;;;;;5032531;28;20022;-65
2023/04/16 07:20:58;;;;;;;11.52;3.72;;;12.70;93.80;;;;;;5032467;28;20032;-66
2023/04/16 07:23:23;;;;;;;8.57;3.10;;;12.70;93.70;;;;;;5032553;28;20133;-65
2023/04/16 07:25:49;;;;;;;8.50;3.28;;;12.70;93.70;;;;;;5031667;28;20030;-66
2023/04/16 07:28:17;;;;;;;9.88;3.42;;;12.70;93.70;;;;;;5014393;28;20053;-65
2023/04/16 07:30:43;;;;;;;8.80;2.85;;;12.70;93.80;;;;;;5032307;28;20029;-65
2023/04/16 07:33:08;;;;;;;10.70;3.83;;;12.70;93.80;;;;;;5032368;28;20019;-66
2023/04/16 07:35:34;;;;;;;10.98;3.55;;;12.70;93.80;;;;;;5032283;28;20064;-65
2023/04/16 07:38:00;;;;;;;10.10;3.50;;;12.70;93.80;;;;;;5032741;28;20417;-66
2023/04/16 07:40:25;;;;;;;13.80;4.30;;;12.70;93.80;;;;;;5013278;28;20013;-65
2023/04/16 07:42:51;;;;;;;9.95;3.90;;;12.70;93.90;;;;;;5030621;28;20033;-65
2023/04/16 07:45:17;;;;;;;8.27;3.70;;;12.70;93.90;;;;;;5031537;28;20029;-65
2023/04/16 07:47:44;;;;;;;11.65;4.38;;;12.70;93.90;;;;;;5030879;28;20080;-65
2023/04/16 07:50:10;;;;;;;8.15;3.97;;;12.70;94.00;;;;;;5027077;28;20032;-64
2023/04/16 07:52:37;;;;;;;8.35;4.20;;;12.70;94.00;;;;;;5032216;28;20025;-65
2023/04/16 07:55:03;;;;;;;11.45;4.50;;;12.80;93.90;;;;;;5016084;28;20399;-66
2023/04/16 07:57:29;;;;;;;7.95;4.30;;;12.70;93.90;;;;;;5020771;28;20048;-66
2023/04/16 07:59:55;;;;;;;7.60;4.15;;;12.70;93.90;;;;;;5031733;28;20022;-65
2023/04/16 08:02:20;;;;;;;10.98;4.80;;;12.70;93.90;;;;;;5031894;28;20040;-65
2023/04/16 08:04:46;;;;;;;8.70;4.00;;;12.70;93.80;;;;;;5032029;28;20021;-65
2023/04/16 08:07:12;;;;;;;11.15;4.30;;;12.70;93.80;;;;;;5031839;28;20025;-65
2023/04/16 08:09:50;;;;;;;11.82;4.50;;;12.70;93.90;;;;;;5028026;28;20033;-65
2023/04/16 08:12:19;;;;;;;12.82;4.47;;;12.80;93.90;;;;;;5031087;28;20120;-66
2023/04/16 08:14:45;;;;;;;9.43;3.78;;;12.70;93.90;;;;;;5035531;28;20037;-66
2023/04/16 08:17:11;;;;;;;7.40;3.95;;;12.80;93.90;;;;;;5031017;28;20038;-64
2023/04/16 08:19:37;;;;;;;6.90;3.70;;;12.80;93.80;;;;;;5024744;28;20025;-66
2023/04/16 08:22:02;;;;;;;9.00;2.92;;;12.90;93.70;;;;;;5035635;28;20039;-65
2023/04/16 08:24:28;;;;;;;6.35;3.65;;;12.80;93.60;;;;;;5025155;28;20030;-65
2023/04/16 08:26:54;;;;;;;11.68;3.70;;;12.90;93.70;;;;;;5030863;28;20083;-66
2023/04/16 08:29:20;;;;;;;8.43;3.30;;;12.90;93.70;;;;;;5031586;28;20041;-65
2023/04/16 08:31:46;;;;;;;9.98;3.83;;;12.90;93.60;;;;;;5022205;28;20194;-66
2023/04/16 08:34:12;;;;;;;11.10;3.90;;;12.90;93.70;;;;;;5023493;28;20028;-68
2023/04/16 08:36:37;;;;;;;10.45;4.20;;;13.00;93.60;;;;;;5018614;28;20514;-65
2023/04/16 08:39:03;;;;;;;6.82;3.45;;;13.00;93.70;;;;;;5019759;28;20026;-65
2023/04/16 08:41:33;;;;;;;8.15;3.45;;;13.00;93.70;;;;;;5003471;28;20044;-66
2023/04/16 08:44:08;;;;;;;9.20;3.65;;;13.00;93.70;;;;;;5028701;28;20100;-66
2023/04/16 08:46:36;;;;;;;12.10;4.13;;;12.90;93.90;;;;;;5025963;28;20035;-66
2023/04/16 08:49:05;;;;;;;9.68;3.92;;;12.90;93.90;;;;;;5031902;28;20026;-65
2023/04/16 08:51:34;;;;;;;8.25;3.63;;;13.00;93.70;;;;;;5022824;28;20065;-66
2023/04/16 08:54:04;;;;;;;8.50;3.50;;;13.00;93.70;;;;;;5007693;28;20026;-66
2023/04/16 08:56:34;;;;;;;7.75;3.30;;;13.00;93.70;;;;;;5026597;28;20045;-66
2023/04/16 08:59:05;;;;;;;9.95;3.13;;;13.00;93.80;;;;;;5021225;28;20092;-67
2023/04/16 09:01:35;;;;;;;8.85;3.53;;;13.00;93.70;;;;;;5030770;28;20498;-68
2023/04/16 09:04:01;;;;;;;7.80;3.72;;;13.00;93.90;;;;;;5021496;28;20372;-67
2023/04/16 09:06:27;;;;;;;7.85;3.88;;;13.00;93.90;;;;;;5012081;28;20441;-65
2023/04/16 09:08:54;;;;;;;8.48;4.00;;;13.00;93.80;;;;;;5025707;28;20032;-65
2023/04/16 09:11:20;;;;;;;16.13;5.30;;;13.00;93.70;;;;;;5026111;28;20022;-66
2023/04/16 09:13:49;;;;;;;10.07;4.28;;;13.00;93.90;;;;;;5012994;28;20441;-66
2023/04/16 09:16:16;;;;;;;8.30;3.72;;;13.00;94.00;;;;;;5024260;28;20040;-65
2023/04/16 09:18:42;;;;;;;10.27;4.75;;;13.00;93.80;;;;;;5005674;28;20033;-66
2023/04/16 09:21:09;;;;;;;8.73;4.35;;;13.00;93.70;;;;;;5023013;28;20080;-68
2023/04/16 09:23:37;;;;;;;10.75;3.90;;;13.00;93.80;;;;;;5024871;28;20041;-67
2023/04/16 09:26:04;;;;;;;8.40;3.53;;;13.00;93.80;;;;;;5026663;28;20236;-67
2023/04/16 09:28:44;;;;;;;9.07;3.78;;;13.10;93.70;;;;;;5026316;28;20021;-64
2023/04/16 09:31:19;;;;;;;11.48;3.63;;;13.10;93.60;;;;;;5024860;28;20071;-67
2023/04/16 09:34:14;;;;;;;8.32;3.83;;;13.10;93.70;;;;;;5026310;28;20030;-68
2023/04/16 09:36:40;;;;;;;14.05;3.70;;;13.00;93.70;;;;;;5006482;28;20037;-67
2023/04/16 09:39:05;;;;;;;12.88;3.28;;;13.00;94.00;;;;;;5030039;28;20022;-66
2023/04/16 09:41:34;;;;;;;9.55;3.05;;;13.10;93.90;;;;;;5034683;28;20108;-65
2023/04/16 09:44:03;;;;;;;7.80;3.78;;;13.10;93.70;;;;;;5033946;28;20029;-66
2023/04/16 09:46:28;;;;;;;7.40;3.05;;;13.10;93.60;;;;;;5027517;28;20068;-64
2023/04/16 09:48:54;;;;;;;6.43;3.20;;;13.10;93.60;;;;;;5033760;28;20471;-65
2023/04/16 09:51:19;;;;;;;8.82;3.95;;;13.10;93.70;;;;;;5025541;28;20471;-63
2023/04/16 09:53:45;;;;;;;8.25;4.00;;;13.10;93.70;;;;;;5027712;28;20420;-63
2023/04/16 09:56:11;;;;;;;9.38;3.65;;;13.10;93.70;;;;;;5029118;28;20032;-65
2023/04/16 09:58:37;;;;;;;8.13;4.00;;;13.10;94.00;;;;;;5032382;28;20033;-64
2023/04/16 10:01:02;;;;;;;8.95;3.63;;;13.10;94.10;;;;;;5028120;28;20111;-65
2023/04/16 10:03:32;;;;;;;8.82;3.63;;;13.10;94.10;;;;;;5024243;28;20049;-64
2023/04/16 10:06:13;;;;;;;6.97;3.13;;;13.20;94.00;;;;;;5030871;28;20033;-65
2023/04/16 10:08:45;;;;;;;12.10;3.22;;;13.20;94.00;;;;;;5033331;28;20025;-65
2023/04/16 10:11:10;;;;;;;9.20;3.17;;;13.20;93.90;;;;;;5033379;28;20034;-64
2023/04/16 10:13:36;;;;;;;15.07;3.75;;;13.20;93.90;;;;;;5032544;28;20049;-63
2023/04/16 10:16:02;;;;;;;9.48;3.05;;;13.20;94.00;;;;;;5025223;28;20407;-66
2023/04/16 10:18:28;;;;;;;10.48;3.63;;;13.20;94.30;;;;;;5028180;28;20495;-64
2023/04/16 10:20:54;;;;;;;10.48;4.18;;;13.20;94.20;;;;;;5024132;28;20037;-64
2023/04/16 10:23:21;;;;;;;10.00;4.78;;;13.30;94.10;;;;;;5026984;28;20403;-63
2023/04/16 10:25:48;;;;;;;8.73;3.40;;;13.30;94.10;;;;;;5024738;28;20018;-63
2023/04/16 10:28:14;;;;;;;8.32;4.03;;;13.30;94.20;;;;;;5030368;28;20033;-64
2023/04/16 10:30:51;;;;;;;7.97;3.60;;;13.30;93.90;;;;;;5023458;28;20022;-64
2023/04/16 10:33:22;;;;;;;6.60;2.83;;;13.30;94.20;;;;;;5027008;28;20453;-64
2023/04/16 10:35:49;;;;;;;8.20;3.30;;;13.30;94.10;;;;;;5023557;28;20029;-65
2023/04/16 10:38:21;;;;;;;9.00;4.22;;;13.30;94.20;;;;;;5025258;28;20163;-65
2023/04/16 10:40:46;;;;;;;10.15;4.03;;;13.30;94.50;;;;;;5020929;28;20052;-66
2023/04/16 10:43:16;;;;;;;12.25;6.00;;;13.30;94.60;;;;;;5029485;28;20486;-65
2023/04/16 10:45:42;;;;;;;22.42;4.88;;;13.30;94.40;;;;;;5028642;28;20032;-64
2023/04/16 10:48:08;;;;;;;9.57;4.00;;;13.40;94.50;;;;;;5022638;28;20037;-64
2023/04/16 10:50:38;;;;;;;14.35;4.95;;;13.40;94.60;;;;;;5012795;28;20018;-66
2023/04/16 10:53:18;;;;;;;7.07;4.35;;;13.40;94.90;;;;;;5022777;28;20100;-66
2023/04/16 10:56:03;;;;;;;9.80;3.72;;;13.40;94.50;;;;;;5017954;28;20426;-65
2023/04/16 10:58:30;;;;;;;13.63;4.15;;;13.50;94.40;;;;;;5013656;28;20049;-66
2023/04/16 11:01:00;;;;;;;8.63;3.55;;;13.50;94.90;;;;;;5018923;28;20025;-62
2023/04/16 11:03:30;;;;;;;10.38;4.22;;;13.40;95.00;;;;;;5021308;28;20034;-66
2023/04/16 11:06:16;;;;;;;9.18;3.40;;;13.50;95.30;;;;;;5022549;28;20034;-65
2023/04/16 11:08:46;;;;;;;9.68;4.63;;;13.50;95.00;;;;;;5005112;28;20021;-65
2023/04/16 11:11:12;;;;;;;11.32;3.83;;;13.60;94.50;;;;;;4996935;28;20091;-65
2023/04/16 11:13:41;;;;;;;11.27;4.07;;;13.50;94.90;;;;;;5019529;28;20125;-67
2023/04/16 11:16:07;;;;;;;8.50;3.85;;;13.50;94.90;;;;;;5019715;28;20029;-65
2023/04/16 11:18:33;;;;;;;11.63;4.22;;;13.50;95.70;;;;;;5025885;28;20087;-63
2023/04/16 11:20:59;;;;;;;14.15;4.72;;;13.50;95.30;;;;;;5021471;28;20455;-68
2023/04/16 11:23:24;;;;;;;14.23;4.35;;;13.60;95.50;;;;;;5004990;28;20105;-67
2023/04/16 11:25:55;;;;;;;13.63;4.07;;;13.60;95.50;;;;;;5025129;28;20025;-67
2023/04/16 11:28:31;;;;;;;8.93;4.38;;;13.60;95.50;;;;;;5017226;28;20026;-67
2023/04/16 11:30:57;;;;;;;14.20;4.28;;;13.60;95.30;;;;;;5022779;28;20032;-66
2023/04/16 11:33:24;;;;;;;15.55;5.50;;;13.50;96.10;;;;;;5019374;28;20026;-66
2023/04/16 11:35:57;;;;;;;14.48;7.90;;;13.50;96.60;;;;;;5021959;28;20029;-66
2023/04/16 11:38:35;;;;;;;17.55;9.13;;;13.60;96.30;;;;;;5026982;28;20414;-67
2023/04/16 11:41:01;;;;;;;14.50;8.25;;;13.60;96.00;;;;;;5026008;28;20049;-64
2023/04/16 11:43:27;;;;;;;8.82;6.28;;;13.60;96.20;;;;;;5023265;28;20462;-64
2023/04/16 11:46:00;;;;;;;11.50;6.82;;;13.60;95.70;;;;;;5024324;28;20026;-68
2023/04/16 11:48:52;;;;;;;14.30;7.93;;;13.70;96.30;;;;;;5028716;28;20486;-64
2023/04/16 11:51:18;;;;;;;10.25;7.97;;;13.70;96.40;;;;;;5027927;28;20304;-67
2023/04/16 11:53:51;;;;;;;11.82;6.55;;;13.70;96.20;;;;;;5014028;28;20033;-64
2023/04/16 11:56:27;;;;;;;13.13;7.70;;;13.80;96.40;;;;;;5023707;28;20140;-66
2023/04/16 11:59:13;;;;;;;17.85;8.85;;;13.80;96.90;;;;;;5022661;28;20121;-66
2023/04/16 12:01:40;;;;;;;11.10;5.85;;;13.90;97.90;;;;;;5026219;28;20398;-66
2023/04/16 12:04:06;;;;;;;10.82;5.40;;;13.90;97.60;;;;;;5022325;28;20034;-64
2023/04/16 12:06:32;;;;;;;7.25;4.63;;;13.90;97.10;;;;;;5007823;28;20099;-63
2023/04/16 12:08:59;;;;;;;9.32;5.47;;;14.00;95.80;;;;;;5013715;28;20064;-66
2023/04/16 12:11:41;;;;;;;10.15;5.72;;;14.00;96.00;;;;;;5010701;28;20052;-65
2023/04/16 12:14:10;;;;;;;12.93;4.97;;;14.00;96.90;;;;;;5018885;28;20026;-66
2023/04/16 12:16:36;;;;;;;10.75;4.70;;;14.00;96.80;;;;;;5014522;28;20119;-61
2023/04/16 12:19:04;;;;;;;7.35;4.18;;;14.00;96.50;;;;;;5026234;28;20456;-66
2023/04/16 12:21:43;;;;;;;6.68;3.72;;;14.10;96.10;;;;;;5026153;28;20033;-66
2023/04/16 12:24:12;;;;;;;9.25;4.22;;;14.10;95.80;;;;;;5026594;28;20112;-66
2023/04/16 12:26:43;;;;;;;8.18;4.00;;;14.10;95.90;;;;;;5023528;28;20471;-66
2023/04/16 12:29:16;;;;;;;11.23;3.65;;;14.10;95.40;;;;;;5022277;28;20018;-62
2023/04/16 12:31:42;;;;;;;5.90;2.97;;;14.10;95.30;;;;;;5016572;28;20026;-63
2023/04/16 12:34:09;;;;;;;7.13;2.90;;;14.10;95.10;;;;;;5026791;28;20029;-61
2023/04/16 12:36:35;;;;;;;8.05;2.92;;;14.20;95.00;;;;;;5019367;28;20610;-61
2023/04/16 12:39:02;;;;;;;8.60;2.67;;;14.10;95.40;;;;;;5002854;28;20021;-65
2023/04/16 12:41:27;;;;;;;6.57;2.63;;;14.20;96.00;;;;;;5003771;28;20025;-63
2023/04/16 12:44:11;;;;;;;9.27;3.13;;;14.20;95.70;;;;;;5022367;28;20040;-65